createdAt,value
2024-01-07T00:04:47.310Z,98502.97
2024-01-07T00:14:49.512Z,98520.38
2024-01-07T00:24:51.920Z,98497.72
2024-01-07T00:34:56.181Z,98487.34
2024-01-07T00:44:58.506Z,98499.38
2024-01-07T00:55:01.825Z,98482.16
2024-01-07T01:05:04.262Z,98489.78
2024-01-07T01:15:06.483Z,98476.38
2024-01-07T01:25:08.850Z,98482.84
2024-01-07T01:35:11.062Z,98477.31
2024-01-07T01:45:13.573Z,98470.94
2024-01-07T01:55:16.261Z,98465.19
2024-01-07T02:05:18.417Z,98460.25
2024-01-07T02:15:21.593Z,98429.91
2024-01-07T02:25:23.649Z,98428.16
2024-01-07T02:35:25.858Z,98426.13
2024-01-07T02:45:28.278Z,98418.72
2024-01-07T02:55:30.556Z,98425.75
2024-01-07T03:05:34.292Z,98415.03
2024-01-07T03:15:36.544Z,98405.75
2024-01-07T03:25:38.698Z,98405.22
2024-01-07T03:35:40.905Z,98394.09
2024-01-07T03:45:44.747Z,98383.38
2024-01-07T03:55:46.966Z,98382.13
2024-01-07T04:05:49.047Z,98380.28
2024-01-07T04:15:51.307Z,98389.44
2024-01-07T04:25:53.492Z,98389.81
2024-01-07T04:35:59.586Z,98388.59
2024-01-07T04:46:01.769Z,98406.03
2024-01-07T04:56:04.173Z,98404.72
2024-01-07T05:06:06.520Z,98405.19
2024-01-07T05:16:08.928Z,98391.75
2024-01-07T05:26:11.108Z,98403.34
2024-01-07T05:36:13.963Z,98401.47
2024-01-07T05:46:16.356Z,98413.72
2024-01-07T05:56:18.517Z,98412.69
2024-01-07T06:06:20.783Z,98395.00
2024-01-07T06:16:23.144Z,98414.72
2024-01-07T06:26:25.499Z,98409.34
2024-01-07T06:36:27.667Z,98426.94
2024-01-07T06:46:30.081Z,98426.13
2024-01-07T06:56:32.946Z,98434.00
2024-01-07T07:06:36.090Z,98431.03
2024-01-07T07:16:38.201Z,98448.44
2024-01-07T07:26:42.281Z,98454.00
2024-01-07T07:36:46.437Z,98444.28
2024-01-07T07:46:48.815Z,98451.13
2024-01-07T07:56:50.879Z,98468.44
2024-01-07T08:06:54.113Z,98476.13
2024-01-07T08:16:56.309Z,98481.50
2024-01-07T08:26:58.784Z,98497.81
2024-01-07T08:37:01.564Z,98519.09
2024-01-07T08:47:03.796Z,98516.78
2024-01-07T08:57:06.132Z,98529.38
2024-01-07T09:07:08.348Z,98540.59
2024-01-07T09:17:10.613Z,98543.66
2024-01-07T09:27:13.173Z,98542.44
2024-01-07T09:37:18.124Z,98553.88
2024-01-07T09:47:21.705Z,98548.66
2024-01-07T09:57:23.929Z,98549.66
2024-01-07T10:07:27.204Z,98554.84
2024-01-07T10:17:29.640Z,98538.44
2024-01-07T10:27:35.053Z,98538.94
2024-01-07T10:37:37.688Z,98536.59
2024-01-07T10:47:43.407Z,98526.50
2024-01-07T10:57:50.627Z,98509.94
2024-01-07T11:08:21.760Z,98516.13
2024-01-07T11:18:24.990Z,98501.94
2024-01-07T11:28:59.909Z,98517.63
2024-01-07T11:39:03.682Z,98515.28
2024-01-07T11:49:06.756Z,98519.47
2024-01-07T11:59:09.793Z,98519.66
2024-01-07T12:09:15.408Z,98528.53
2024-01-07T12:19:18.737Z,98529.09
2024-01-07T12:29:21.181Z,98527.91
2024-01-07T12:39:27.362Z,98535.28
2024-01-07T12:49:30.964Z,98559.66
2024-01-07T12:59:33.089Z,98564.19
2024-01-07T13:09:35.485Z,98570.75
2024-01-07T13:19:37.778Z,98586.69
2024-01-07T13:29:40.161Z,98600.13
2024-01-07T13:39:43.049Z,98595.09
2024-01-07T13:49:48.280Z,98606.06
2024-01-07T13:59:50.412Z,98602.72
2024-01-07T14:09:53.389Z,98613.38
2024-01-07T14:19:55.794Z,98626.31
2024-01-07T14:29:59.756Z,98635.22
2024-01-07T14:40:01.788Z,98632.13
2024-01-07T14:50:06.835Z,98651.88
2024-01-07T15:00:10.855Z,98655.19
2024-01-07T15:10:16.554Z,98668.84
2024-01-07T15:20:18.785Z,98681.44
2024-01-07T15:30:20.852Z,98701.91
2024-01-07T15:40:23.376Z,98705.78
2024-01-07T15:50:25.643Z,98719.19
2024-01-07T16:00:27.748Z,98721.88
2024-01-07T16:10:29.773Z,98739.19
2024-01-07T16:20:32.056Z,98739.53
2024-01-07T16:30:35.340Z,98759.81
2024-01-07T16:40:38.266Z,98761.84
2024-01-07T16:50:40.700Z,98767.88
2024-01-07T17:00:42.881Z,98794.66
2024-01-07T17:10:47.767Z,98797.78
2024-01-07T17:20:50.507Z,98782.84
2024-01-07T17:30:53.140Z,98815.69
2024-01-07T17:40:55.284Z,98825.69
2024-01-07T17:51:04.293Z,98852.22
2024-01-07T18:01:11.080Z,98863.09
2024-01-07T18:11:13.205Z,98866.31
2024-01-07T18:21:16.588Z,98878.03
2024-01-07T18:31:18.897Z,98881.63
2024-01-07T18:41:23.613Z,98895.69
2024-01-07T18:51:26.716Z,98913.22
2024-01-07T19:01:29.071Z,98939.22
2024-01-07T19:11:31.207Z,98946.56
2024-01-07T19:21:33.303Z,98953.38
2024-01-07T19:31:36.540Z,98965.28
2024-01-07T19:41:39.128Z,98981.59
2024-01-07T19:51:41.521Z,98988.69
2024-01-07T20:01:43.720Z,99005.28
2024-01-07T20:11:45.593Z,99018.91
2024-01-07T20:21:49.422Z,99024.09
2024-01-07T20:31:51.722Z,99026.78
2024-01-07T20:41:53.793Z,99032.34
2024-01-07T20:51:55.899Z,99055.66
2024-01-07T21:01:58.016Z,99074.81
2024-01-07T21:12:02.041Z,99077.19
2024-01-07T21:22:04.057Z,99095.81
2024-01-07T21:32:06.648Z,99111.09
2024-01-07T21:42:08.693Z,99117.63
2024-01-07T21:52:10.747Z,99120.31
2024-01-07T22:02:12.973Z,99130.38
2024-01-07T22:12:14.972Z,99125.50
2024-01-07T22:22:18.791Z,99122.84
2024-01-07T22:32:20.737Z,99142.78
2024-01-07T22:42:22.747Z,99163.44
2024-01-07T22:52:25.338Z,99171.66
2024-01-07T23:02:27.415Z,99178.22
2024-01-07T23:12:29.676Z,99170.50
2024-01-07T23:32:34.084Z,99203.56
2024-01-07T23:42:36.245Z,99216.63
2024-01-07T23:52:40.970Z,99227.53
